Flight Track Log - Related Links

Times and Time Zones

All times are in EDT time to prevent confusion due to time zone crossing. See the AAL1459 flight status page for this flight to view local times or setup timezone preferences in your user account.

Time Position Orientation Groundspeed Altitude Reporting Facility
EDT Latitude Longitude Course Direction KTS MPH feet Rate Location/Type
Wed 02:43:07 PM 42.3690 -70.9400 79° East 186 214 1,700  Level FlightAware ADS-B
Wed 02:43:32 PM 42.3740 -70.9080 78° East 230 265 2,200 1,964 Climbing FlightAware ADS-B
Wed 02:44:02 PM 42.3820 -70.8640 76° East 248 285 3,500 2,700 Climbing FlightAware ADS-B
Wed 02:44:32 PM 42.3930 -70.8170 72° East 269 310 4,900 2,850 Climbing FlightAware ADS-B
Wed 02:44:42 PM 42.4010 -70.8040 50° Northeast 278 320 5,400 3,000 Climbing FlightAware ADS-B
Wed 02:45:12 PM 42.4360 -70.7740 32° Northeast 287 330 6,900 2,800 Climbing FlightAware ADS-B
Wed 02:45:27 PM 42.4550 -70.7690 11° North 303 349 7,500 2,850 Climbing FlightAware ADS-B
Wed 02:45:52 PM 42.4900 -70.7820 345° North 299 344 8,800 3,000 Climbing FlightAware ADS-B
Wed 02:46:07 PM 42.5080 -70.7960 330° Northwest 308 354 9,500 1,964 Climbing FlightAware ADS-B
Wed 02:46:47 PM 42.5460 -70.8560 311° West 338 389 10,600 2,118 Climbing FlightAware ADS-B
Wed 02:47:32 PM 42.5900 -70.9360 307° West 357 411 12,500 2,682 Climbing FlightAware ADS-B
Wed 02:48:12 PM 42.6310 -71.0090 307° West 369 425 14,400 2,824 Climbing FlightAware ADS-B
Wed 02:48:57 PM 42.6780 -71.0930 307° West 378 435 16,500 2,753 Climbing FlightAware ADS-B
Wed 02:49:37 PM 42.7230 -71.1710 308° West 393 452 18,300 2,625 Climbing FlightAware ADS-B
Wed 02:50:17 PM 42.7660 -71.2510 306° West 397 457 20,000 2,541 Climbing FlightAware ADS-B
Wed 02:51:02 PM 42.7890 -71.3580 286° West 391 450 21,900 2,471 Climbing FlightAware ADS-B
Wed 02:51:42 PM 42.7980 -71.4550 277° West 396 456 23,500 1,976 Climbing FlightAware ADS-B
Wed 02:52:27 PM 42.8090 -71.5630 278° West 410 472 24,700 1,694 Climbing FlightAware ADS-B
Wed 02:53:07 PM 42.8190 -71.6740 277° West 422 486 25,900 1,800 Climbing FlightAware ADS-B
Wed 02:53:47 PM 42.8290 -71.7800 277° West 430 495 27,100 1,694 Climbing FlightAware ADS-B
Wed 02:54:32 PM 42.8410 -71.9050 278° West 439 505 28,300 1,467 Climbing FlightAware ADS-B
Wed 02:55:17 PM 42.8530 -72.0250 278° West 446 513 29,300 1,275 Climbing FlightAware ADS-B
Wed 02:55:52 PM 42.8620 -72.1290 277° West 455 524 30,000 525 Climbing FlightAware ADS-B
Wed 02:56:37 PM 42.8730 -72.2530 277° West 461 531 30,000  Level FlightAware ADS-B
Wed 02:57:17 PM 42.8840 -72.3700 277° West 463 533 30,000  Level FlightAware ADS-B
Wed 02:58:02 PM 42.8960 -72.5030 277° West 464 534 30,000  Level FlightAware ADS-B
Wed 02:58:42 PM 42.9060 -72.6160 277° West 464 534 30,000  Level FlightAware ADS-B
Wed 02:59:27 PM 42.9170 -72.7430 277° West 464 534 30,000  Level FlightAware ADS-B
Wed 03:00:07 PM 42.9270 -72.8600 277° West 463 533 30,000  Level FlightAware ADS-B
Wed 03:00:42 PM 42.9350 -72.9570 276° West 462 532 30,000  Level FlightAware ADS-B
Wed 03:01:27 PM 42.9440 -73.0750 276° West 462 532 30,000  Level FlightAware ADS-B
Wed 03:01:57 PM 42.9370 -72.9860 96° East 30,000  Level FlightAware ADS-B
Wed 03:03:37 PM 42.9750 -73.4540 276° West 462 532 30,000  Level FlightAware ADS-B
Wed 03:04:12 PM 42.9820 -73.5450 276° West 462 532 30,000  Level FlightAware ADS-B
Wed 03:05:02 PM 42.9920 -73.6680 276° West 462 532 30,000  Level FlightAware ADS-B
Wed 03:05:42 PM 42.9990 -73.7670 276° West 462 532 30,000  Level FlightAware ADS-B
Wed 03:06:42 PM 43.0160 -73.9990 276° West 466 536 30,000  Level FlightAware ADS-B
Wed 03:07:22 PM 43.0260 -74.1170 277° West 468 539 30,000  Level FlightAware ADS-B
Wed 03:08:02 PM 43.0350 -74.2440 276° West 468 539 30,000  Level FlightAware ADS-B
Wed 03:08:47 PM 43.0430 -74.3610 275° West 468 539 30,000  Level FlightAware ADS-B
Wed 03:09:27 PM 43.0490 -74.4620 275° West 468 539 30,000  Level FlightAware ADS-B
Wed 03:10:07 PM 43.0560 -74.5620 276° West 468 539 30,000  Level FlightAware ADS-B
Wed 03:10:47 PM 43.0690 -74.7170 277° West 466 536 30,000  Level FlightAware ADS-B
Wed 03:11:42 PM 43.0790 -74.8670 275° West 466 536 30,000  Level FlightAware ADS-B
Wed 03:12:32 PM 43.0890 -75.0220 275° West 468 539 30,000  Level FlightAware ADS-B
Wed 03:13:12 PM 43.0970 -75.1400 275° West 470 541 30,000  Level FlightAware ADS-B
Wed 03:13:52 PM 43.1050 -75.2630 275° West 471 542 30,000  Level FlightAware ADS-B
Wed 03:14:32 PM 43.1120 -75.3760 275° West 473 544 30,000  Level FlightAware ADS-B
Wed 03:15:17 PM 43.1200 -75.5160 275° West 475 547 30,000  Level FlightAware ADS-B
Wed 03:15:57 PM 43.1270 -75.6320 275° West 476 548 30,000  Level FlightAware ADS-B
Wed 03:16:42 PM 43.1360 -75.7700 275° West 479 551 30,000  Level FlightAware ADS-B
Wed 03:17:22 PM 43.1430 -75.8920 275° West 480 552 30,000  Level FlightAware ADS-B
Wed 03:17:57 PM 43.1490 -75.9950 275° West 480 552 30,000  Level FlightAware ADS-B
Wed 03:18:47 PM 43.1570 -76.1480 274° West 481 554 30,000  Level FlightAware ADS-B
Wed 03:19:32 PM 43.1610 -76.2820 272° West 480 552 30,000  Level FlightAware ADS-B
Wed 03:20:12 PM 43.1600 -76.3990 269° West 480 552 30,000  Level FlightAware ADS-B
Wed 03:20:57 PM 43.1600 -76.5440 270° West 481 554 30,000  Level FlightAware ADS-B
Wed 03:21:37 PM 43.1600 -76.6620 270° West 482 555 30,000  Level FlightAware ADS-B
Wed 03:22:17 PM 43.1600 -76.7840 270° West 482 555 30,000  Level FlightAware ADS-B
Wed 03:23:02 PM 43.1590 -76.9250 269° West 484 557 30,000  Level FlightAware ADS-B
Wed 03:23:42 PM 43.1580 -77.0480 269° West 484 557 30,000  Level FlightAware ADS-B
Wed 03:24:27 PM 43.1570 -77.1810 269° West 484 557 30,000  Level FlightAware ADS-B
Wed 03:25:07 PM 43.1560 -77.3050 269° West 484 557 30,000  Level FlightAware ADS-B
Wed 03:25:47 PM 43.1550 -77.4290 269° West 483 556 30,000  Level FlightAware ADS-B
Wed 03:26:32 PM 43.1530 -77.5660 269° West 483 556 30,000  Level FlightAware ADS-B
Wed 03:27:12 PM 43.1520 -77.6890 269° West 483 556 30,000  Level FlightAware ADS-B
Wed 03:27:52 PM 43.1500 -77.8080 269° West 482 555 30,000  Level FlightAware ADS-B
Wed 03:28:37 PM 43.1470 -77.9460 268° West 482 555 30,000  Level FlightAware ADS-B
Wed 03:29:17 PM 43.1450 -78.0670 269° West 483 556 30,000  Level FlightAware ADS-B
Wed 03:30:02 PM 43.1420 -78.2040 268° West 483 556 30,000  Level FlightAware ADS-B
Wed 03:30:42 PM 43.1390 -78.3350 268° West 482 555 30,000  Level FlightAware ADS-B
Wed 03:31:27 PM 43.1350 -78.4760 268° West 482 555 30,000  Level FlightAware ADS-B
Wed 03:32:07 PM 43.1320 -78.5990 268° West 481 554 30,000  Level FlightAware ADS-B
Wed 03:32:47 PM 43.1290 -78.7150 268° West 480 552 30,000 494 Level FlightAware ADS-B
Wed 03:33:32 PM 43.1250 -78.8540 268° West 490 564 30,700 1,341 Climbing FlightAware ADS-B
Wed 03:34:12 PM 43.1220 -78.9770 268° West 486 559 31,900 975 Climbing FlightAware ADS-B
Wed 03:34:52 PM 43.1180 -79.1000 267° West 489 563 32,000 71 Climbing FlightAware ADS-B
Wed 03:35:37 PM 43.1140 -79.2390 268° West 487 560 32,000  Level FlightAware ADS-B
Wed 03:36:17 PM 43.1100 -79.3630 268° West 486 559 32,000  Level FlightAware ADS-B
Wed 03:36:57 PM 43.1060 -79.4860 267° West 486 559 32,000  Level FlightAware ADS-B
Wed 03:37:32 PM 43.1020 -79.5870 267° West 485 558 32,000  Level FlightAware ADS-B
Wed 03:38:22 PM 43.0970 -79.7460 268° West 486 559 32,000  Level FlightAware ADS-B
Wed 03:39:07 PM 43.0920 -79.8760 267° West 486 559 32,000  Level FlightAware ADS-B
Wed 03:39:47 PM 43.0870 -80.0100 267° West 486 559 32,000  Level FlightAware ADS-B
Wed 03:40:27 PM 43.0830 -80.1250 267° West 485 558 32,000  Level FlightAware ADS-B
Wed 03:41:12 PM 43.0770 -80.2660 267° West 484 557 32,000  Level FlightAware ADS-B
Wed 03:41:52 PM 43.0720 -80.3860 267° West 483 556 32,000  Level FlightAware ADS-B
Wed 03:42:32 PM 43.0670 -80.5080 267° West 482 555 32,000  Level FlightAware ADS-B
Wed 03:43:17 PM 43.0610 -80.6420 267° West 481 554 32,000  Level FlightAware ADS-B
Wed 03:43:57 PM 43.0560 -80.7680 267° West 480 552 32,000  Level FlightAware ADS-B
Wed 03:44:42 PM 43.0500 -80.8890 266° West 480 552 32,000  Level FlightAware ADS-B
Wed 03:45:22 PM 43.0450 -81.0080 267° West 480 552 32,000  Level FlightAware ADS-B
Wed 03:46:07 PM 43.0380 -81.1470 266° West 479 551 32,000  Level FlightAware ADS-B
Wed 03:46:47 PM 43.0360 -81.2670 269° West 479 551 32,000  Level FlightAware ADS-B
Wed 03:47:27 PM 43.0340 -81.3860 269° West 478 550 32,000  Level FlightAware ADS-B
Wed 03:48:12 PM 43.0310 -81.5190 268° West 476 548 32,000  Level FlightAware ADS-B
Wed 03:48:47 PM 43.0300 -81.6160 269° West 475 547 32,000  Level FlightAware ADS-B
Wed 03:49:32 PM 43.0270 -81.7540 268° West 473 544 32,000  Level FlightAware ADS-B
Wed 03:50:17 PM 43.0240 -81.9010 268° West 473 544 32,000  Level FlightAware ADS-B
Wed 03:50:57 PM 43.0210 -82.0300 268° West 472 543 32,000  Level FlightAware ADS-B
Wed 03:51:42 PM 43.0170 -82.1640 268° West 473 544 32,000  Level FlightAware ADS-B
Wed 03:52:27 PM 43.0140 -82.2900 268° West 474 545 32,000  Level FlightAware ADS-B
Wed 03:53:07 PM 43.0110 -82.4180 268° West 475 547 32,000  Level FlightAware ADS-B
Wed 03:53:47 PM 43.0080 -82.5300 268° West 475 547 32,000  Level FlightAware ADS-B
Wed 03:54:32 PM 43.0040 -82.6490 267° West 474 545 32,000  Level FlightAware ADS-B
Wed 03:55:12 PM 43.0010 -82.7580 268° West 472 543 32,000  Level FlightAware ADS-B
Wed 03:55:57 PM 42.9970 -82.8940 268° West 469 540 32,000  Level FlightAware ADS-B
Wed 03:56:37 PM 42.9930 -83.0180 268° West 469 540 32,000  Level FlightAware ADS-B
Wed 03:57:17 PM 42.9890 -83.1280 267° West 469 540 32,000  Level FlightAware ADS-B
Wed 03:57:57 PM 42.9850 -83.2550 268° West 468 539 32,000  Level FlightAware ADS-B
Wed 03:58:32 PM 42.9810 -83.3580 267° West 467 537 32,000  Level FlightAware ADS-B
Wed 03:59:27 PM 42.9760 -83.5040 267° West 466 536 32,000  Level FlightAware ADS-B
Wed 04:00:07 PM 42.9700 -83.6610 267° West 465 535 32,000  Level FlightAware ADS-B
Wed 04:00:47 PM 42.9650 -83.7670 266° West 464 534 32,000  Level FlightAware ADS-B
Wed 04:01:32 PM 42.9520 -83.9000 262° West 461 531 32,000  Level FlightAware ADS-B
Wed 04:02:12 PM 42.9410 -84.0190 263° West 459 528 32,000  Level FlightAware ADS-B
Wed 04:02:52 PM 42.9290 -84.1340 262° West 459 528 32,000  Level FlightAware ADS-B
Wed 04:03:32 PM 42.9180 -84.2490 263° West 459 528 32,000  Level FlightAware ADS-B
Wed 04:04:17 PM 42.9050 -84.3800 262° West 457 526 32,000  Level FlightAware ADS-B
Wed 04:05:02 PM 42.8920 -84.5050 262° West 457 526 32,000  Level FlightAware ADS-B
Wed 04:05:42 PM 42.8800 -84.6190 262° West 456 525 32,000  Level FlightAware ADS-B
Wed 04:06:27 PM 42.8670 -84.7500 262° West 454 522 32,000  Level FlightAware ADS-B
Wed 04:07:07 PM 42.8550 -84.8610 262° West 452 520 32,000  Level FlightAware ADS-B
Wed 04:07:47 PM 42.8440 -84.9730 262° West 451 519 32,000  Level FlightAware ADS-B
Wed 04:08:32 PM 42.8300 -85.0990 261° West 451 519 32,000  Level FlightAware ADS-B
Wed 04:09:12 PM 42.8180 -85.2090 262° West 450 518 32,000  Level FlightAware ADS-B
Wed 04:09:52 PM 42.8060 -85.3240 262° West 447 514 32,000  Level FlightAware ADS-B
Wed 04:10:37 PM 42.7920 -85.4450 261° West 446 513 32,000 -141 Level FlightAware ADS-B
Wed 04:11:17 PM 42.7760 -85.5550 259° West 444 511 31,800 -2,047 Descending FlightAware ADS-B
Wed 04:12:02 PM 42.7540 -85.6810 257° West 453 521 29,100 -3,106 Descending FlightAware ADS-B
Wed 04:12:42 PM 42.7340 -85.7890 256° West 444 511 27,400 -2,475 Descending FlightAware ADS-B
Wed 04:13:22 PM 42.7150 -85.8950 256° West 416 479 25,800 -2,475 Descending FlightAware ADS-B
Wed 04:14:02 PM 42.6980 -85.9910 256° West 398 458 24,100 -2,329 Descending FlightAware ADS-B
Wed 04:14:47 PM 42.6770 -86.1020 256° West 383 441 22,500 -2,118 Descending FlightAware ADS-B
Wed 04:15:27 PM 42.6610 -86.1930 257° West 375 432 21,100 -1,906 Descending FlightAware ADS-B
Wed 04:16:12 PM 42.6420 -86.2910 255° West 368 423 19,800 -1,553 Descending FlightAware ADS-B
Wed 04:16:52 PM 42.6250 -86.3820 256° West 368 423 18,900 -1,412 Descending FlightAware ADS-B
Wed 04:17:37 PM 42.6070 -86.4810 256° West 365 420 17,800 -1,412 Descending FlightAware ADS-B
Wed 04:18:17 PM 42.5900 -86.5720 256° West 360 414 16,900 -1,275 Descending FlightAware ADS-B
Wed 04:18:57 PM 42.5740 -86.6520 255° West 349 402 16,100 -1,271 Descending FlightAware ADS-B
Wed 04:19:42 PM 42.5540 -86.7490 254° West 350 403 15,100 -1,341 Descending FlightAware ADS-B
Wed 04:20:22 PM 42.5320 -86.8320 250° West 347 399 14,200 -1,341 Descending FlightAware ADS-B
Wed 04:21:07 PM 42.5070 -86.9210 249° West 327 376 13,200 -1,271 Descending FlightAware ADS-B
Wed 04:21:47 PM 42.4870 -86.9970 250° West 311 358 12,400 -1,200 Descending FlightAware ADS-B
Wed 04:22:32 PM 42.4650 -87.0780 250° West 304 350 11,500 -1,120 Descending FlightAware ADS-B
Wed 04:23:02 PM 42.4500 -87.1310 249° West 300 345 11,000 -1,114 Descending FlightAware ADS-B
Wed 04:23:42 PM 42.4290 -87.2010 248° West 294 338 10,200 -1,200 Descending FlightAware ADS-B
Wed 04:24:07 PM 42.4170 -87.2370 246° West 290 334 9,700 -1,309 Descending FlightAware ADS-B
Wed 04:24:37 PM 42.4000 -87.2860 245° Southwest 286 329 9,000 -1,418 Descending FlightAware ADS-B
Wed 04:25:02 PM 42.3860 -87.3290 246° West 281 323 8,400 -1,309 Descending FlightAware ADS-B
Wed 04:25:32 PM 42.3700 -87.3770 246° West 276 318 7,800 -1,300 Descending FlightAware ADS-B
Wed 04:26:02 PM 42.3550 -87.4220 246° West 271 312 7,100 -900 Descending FlightAware ADS-B
Wed 04:26:32 PM 42.3390 -87.4680 245° Southwest 260 299 6,900 -300 Descending FlightAware ADS-B
Wed 04:26:42 PM 42.3340 -87.4840 247° West 259 298 6,900  Level FlightAware ADS-B
Wed 04:27:12 PM 42.3200 -87.5260 246° West 256 295 6,900  Level FlightAware ADS-B
Wed 04:27:27 PM 42.3090 -87.5480 236° Southwest 255 293 6,900  Level FlightAware ADS-B
Wed 04:27:52 PM 42.2860 -87.5750 221° Southwest 258 297 6,900 -750 Level FlightAware ADS-B
Wed 04:28:07 PM 42.2730 -87.5900 220° Southwest 260 299 6,400 -1,200 Descending FlightAware ADS-B
Wed 04:28:37 PM 42.2480 -87.6180 220° Southwest 254 292 6,000 -545 Descending FlightAware ADS-B
Wed 04:29:02 PM 42.2250 -87.6430 219° Southwest 234 269 5,900 -764 Descending FlightAware ADS-B
Wed 04:29:32 PM 42.1990 -87.6720 220° Southwest 222 255 5,300 -1,350 Descending FlightAware ADS-B
Wed 04:29:42 PM 42.1910 -87.6810 220° Southwest 222 255 5,000 -1,200 Descending FlightAware ADS-B
Wed 04:30:07 PM 42.1720 -87.7030 221° Southwest 223 257 4,600 -900 Descending FlightAware ADS-B
Wed 04:30:42 PM 42.1450 -87.7330 219° Southwest 219 252 4,100 -720 Descending FlightAware ADS-B
Wed 04:30:57 PM 42.1340 -87.7460 221° Southwest 221 254 4,000 -750 Descending FlightAware ADS-B
Wed 04:31:22 PM 42.1140 -87.7680 219° Southwest 211 243 3,600 -1,050 Descending FlightAware ADS-B
Wed 04:31:37 PM 42.1020 -87.7800 217° Southwest 211 243 3,300 -1,333 Descending FlightAware ADS-B
Wed 04:32:07 PM 42.0790 -87.8060 220° Southwest 206 237 2,600 -1,200 Descending FlightAware ADS-B
Wed 04:32:22 PM 42.0680 -87.8190 221° Southwest 198 228 2,400 -900 Descending FlightAware ADS-B
Wed 04:32:47 PM 42.0510 -87.8370 218° Southwest 183 211 2,000 -1,067 Descending FlightAware ADS-B
Wed 04:33:07 PM 42.0390 -87.8510 221° Southwest 168 193 1,600 -933 Descending FlightAware ADS-B
Wed 04:33:32 PM 42.0240 -87.8670 218° Southwest 161 185 1,300 -840 Descending FlightAware ADS-B
Wed 04:33:57 PM 42.0100 -87.8830 220° Southwest 162 186 900 -873 Descending FlightAware ADS-B
Wed 04:34:27 PM 41.9930 -87.9020 220° Southwest 160 184 500 -800 Descending FlightAware ADS-B

Login

Don't have an account? Register now (free) for customized features, flight alerts, and more!